createdAt,value
2023-04-04T00:06:07.514Z,76.24
2023-04-04T00:16:11.594Z,76.94
2023-04-04T00:26:17.404Z,77.47
2023-04-04T00:36:20.038Z,77.39
2023-04-04T00:46:25.186Z,77.17
2023-04-04T00:56:28.947Z,77.25
2023-04-04T01:06:33.027Z,76.49
2023-04-04T01:16:36.346Z,75.93
2023-04-04T01:26:40.469Z,76.55
2023-04-04T01:36:49.320Z,75.60
2023-04-04T01:46:55.938Z,75.83
2023-04-04T01:56:58.631Z,76.14
2023-04-04T02:07:02.626Z,76.66
2023-04-04T02:17:05.358Z,77.08
2023-04-04T02:27:09.302Z,77.21
2023-04-04T02:37:11.967Z,78.86
2023-04-04T02:47:16.802Z,78.53
2023-04-04T02:57:19.572Z,78.53
2023-04-04T03:07:23.699Z,78.52
2023-04-04T03:17:27.096Z,78.82
2023-04-04T03:27:32.318Z,79.75
2023-04-04T03:37:35.399Z,79.95
2023-04-04T03:47:39.805Z,80.06
2023-04-04T03:57:42.727Z,81.31
2023-04-04T04:07:46.892Z,82.89
2023-04-04T04:17:49.665Z,83.59
2023-04-04T04:27:56.447Z,84.47
2023-04-04T04:37:59.142Z,84.71
2023-04-04T04:48:03.245Z,85.69
2023-04-04T04:58:06.833Z,84.66
2023-04-04T05:08:11.055Z,84.74
2023-04-04T05:18:13.719Z,84.52
2023-04-04T05:28:18.010Z,84.67
2023-04-04T05:38:21.319Z,84.82
2023-04-04T05:48:25.290Z,84.28
2023-04-04T05:58:27.969Z,84.42
2023-04-04T06:08:37.510Z,84.29
2023-04-04T06:18:46.194Z,83.65
2023-04-04T06:28:50.662Z,83.24
2023-04-04T06:38:53.388Z,82.68
2023-04-04T06:48:57.351Z,82.29
2023-04-04T06:59:00.042Z,81.24
2023-04-04T07:09:05.828Z,79.91
2023-04-04T07:19:09.742Z,77.89
2023-04-04T07:29:13.940Z,76.25
2023-04-04T07:39:16.945Z,74.50
2023-04-04T07:49:21.024Z,72.91
2023-04-04T07:59:23.819Z,70.11
2023-04-04T08:09:31.303Z,69.25
2023-04-04T08:19:34.119Z,68.36
2023-04-04T08:29:38.162Z,64.37
2023-04-04T08:39:40.943Z,63.06
2023-04-04T08:49:46.643Z,62.40
2023-04-04T08:59:49.583Z,57.75
2023-04-04T09:09:55.469Z,58.71
2023-04-04T09:20:03.997Z,54.65
2023-04-04T09:30:10.141Z,53.78
2023-04-04T09:40:14.509Z,53.27
2023-04-04T09:50:23.529Z,50.53
2023-04-04T10:00:30.527Z,50.79
2023-04-04T10:10:34.554Z,48.73
2023-04-04T10:20:38.476Z,47.94
2023-04-04T10:30:59.424Z,46.40
2023-04-04T10:41:07.530Z,42.64
2023-04-04T10:51:12.730Z,42.32
2023-04-04T11:01:20.673Z,41.26
2023-04-04T11:11:28.107Z,39.31
2023-04-04T11:21:33.618Z,37.10
2023-04-04T11:31:42.198Z,31.83
2023-04-04T11:41:45.714Z,21.11
2023-04-04T11:51:52.612Z,18.77
2023-04-04T12:01:56.072Z,15.06
2023-04-04T12:12:00.701Z,13.74
2023-04-04T12:22:05.381Z,13.59
2023-04-04T12:32:10.819Z,11.88
2023-04-04T12:42:13.788Z,12.17
2023-04-04T12:52:21.945Z,12.90
2023-04-04T13:02:25.162Z,13.45
2023-04-04T13:12:56.790Z,15.24
2023-04-04T13:22:59.893Z,18.84
2023-04-04T13:33:06.850Z,23.34
2023-04-04T13:43:11.339Z,24.79
2023-04-04T13:53:15.859Z,25.13
2023-04-04T14:03:18.970Z,25.40
2023-04-04T14:13:23.056Z,27.02
2023-04-04T14:23:25.771Z,27.52
2023-04-04T14:33:29.957Z,29.00
2023-04-04T14:43:32.592Z,30.91
2023-04-04T14:53:36.592Z,31.96
2023-04-04T15:03:39.554Z,32.15
2023-04-04T15:13:43.737Z,34.12
2023-04-04T15:23:46.380Z,33.82
2023-04-04T15:33:50.506Z,35.55
2023-04-04T15:43:53.318Z,35.01
2023-04-04T15:53:57.319Z,35.54
2023-04-04T16:04:00.224Z,37.42
2023-04-04T16:14:05.881Z,39.53
2023-04-04T16:24:09.078Z,38.88
2023-04-04T16:34:13.339Z,38.69
2023-04-04T16:44:16.085Z,40.94
2023-04-04T16:54:20.094Z,41.31
2023-04-04T17:04:22.877Z,43.17
2023-04-04T17:14:27.236Z,42.53
2023-04-04T17:24:30.175Z,43.53
2023-04-04T17:34:34.210Z,43.96
2023-04-04T17:44:36.945Z,45.38
2023-04-04T17:54:41.339Z,47.26
2023-04-04T18:04:44.041Z,49.20
2023-04-04T18:14:48.070Z,51.12
2023-04-04T18:24:50.771Z,52.82
2023-04-04T18:34:54.864Z,54.23
2023-04-04T18:44:57.623Z,56.70
2023-04-04T18:55:01.696Z,58.25
2023-04-04T19:05:05.362Z,60.44
2023-04-04T19:15:10.437Z,61.28
2023-04-04T19:25:13.213Z,60.71
2023-04-04T19:35:24.126Z,61.75
2023-04-04T19:45:48.685Z,62.70
2023-04-04T19:55:53.144Z,63.59
2023-04-04T20:06:15.589Z,63.96
2023-04-04T20:16:22.075Z,64.11
2023-04-04T20:26:51.029Z,65.87
2023-04-04T20:36:55.187Z,65.30
2023-04-04T20:46:58.070Z,66.49
2023-04-04T20:57:03.002Z,66.40
2023-04-04T21:07:06.428Z,66.39
2023-04-04T21:17:12.815Z,67.24
2023-04-04T21:27:34.430Z,67.54
2023-04-04T21:37:39.234Z,69.16
2023-04-04T21:47:41.943Z,71.04
2023-04-04T21:57:46.041Z,72.05
2023-04-04T22:07:48.649Z,72.67
2023-04-04T22:17:55.017Z,72.87
2023-04-04T22:27:58.755Z,73.75
2023-04-04T22:38:03.528Z,75.02
2023-04-04T22:48:06.377Z,75.87
2023-04-04T22:58:10.532Z,74.55
2023-04-04T23:08:13.230Z,75.05
2023-04-04T23:18:17.525Z,75.38
2023-04-04T23:28:20.462Z,75.69
2023-04-04T23:38:24.410Z,77.12
2023-04-04T23:48:27.135Z,78.59
2023-04-04T23:58:32.081Z,79.93
